createdAt,value
2022-08-20T00:01:01.655Z,21.00
2022-08-20T00:03:33.445Z,20.69
2022-08-20T00:06:05.147Z,20.86
2022-08-20T00:08:34.149Z,20.84
2022-08-20T00:11:05.888Z,20.27
2022-08-20T00:13:38.167Z,20.35
2022-08-20T00:16:07.023Z,20.31
2022-08-20T00:18:37.878Z,20.25
2022-08-20T00:21:09.790Z,20.31
2022-08-20T00:23:39.242Z,20.42
2022-08-20T00:26:11.291Z,20.22
2022-08-20T00:28:40.738Z,20.09
2022-08-20T00:31:12.242Z,20.11
2022-08-20T00:33:41.346Z,20.06
2022-08-20T00:36:12.303Z,20.14
2022-08-20T00:38:43.802Z,20.22
2022-08-20T00:41:17.647Z,20.38
2022-08-20T00:43:49.310Z,19.88
2022-08-20T00:46:22.243Z,20.28
2022-08-20T00:49:01.791Z,19.95
2022-08-20T00:51:38.390Z,20.30
2022-08-20T00:54:11.130Z,20.37
2022-08-20T00:56:44.185Z,20.19
2022-08-20T00:59:17.083Z,20.39
2022-08-20T01:01:55.551Z,19.78
2022-08-20T01:04:26.727Z,19.88
2022-08-20T01:06:55.639Z,19.88
2022-08-20T01:09:50.036Z,19.75
2022-08-20T01:12:17.922Z,19.66
2022-08-20T01:14:48.116Z,19.36
2022-08-20T01:17:20.427Z,19.65
2022-08-20T01:19:53.863Z,19.88
2022-08-20T01:22:46.966Z,19.72
2022-08-20T01:25:25.170Z,19.73
2022-08-20T01:27:56.494Z,19.46
2022-08-20T01:30:28.622Z,19.33
2022-08-20T01:32:57.552Z,19.32
2022-08-20T01:35:26.831Z,19.43
2022-08-20T01:37:55.882Z,19.30
2022-08-20T01:40:41.078Z,19.11
2022-08-20T01:43:11.539Z,19.13
2022-08-20T01:45:43.182Z,19.42
2022-08-20T01:48:14.387Z,19.13
2022-08-20T01:50:49.040Z,19.43
2022-08-20T01:53:22.340Z,19.34
2022-08-20T01:55:51.343Z,19.48
2022-08-20T01:58:22.289Z,19.10
2022-08-20T02:00:50.870Z,19.28
2022-08-20T02:03:19.448Z,19.18
2022-08-20T02:05:48.031Z,19.11
2022-08-20T02:08:16.823Z,19.04
2022-08-20T02:10:46.458Z,18.72
2022-08-20T02:13:15.050Z,18.82
2022-08-20T02:15:45.212Z,18.91
2022-08-20T02:18:15.760Z,18.54
2022-08-20T02:20:46.164Z,18.46
2022-08-20T02:23:15.747Z,18.65
2022-08-20T02:25:47.589Z,18.86
2022-08-20T02:28:20.897Z,19.02
2022-08-20T02:30:53.849Z,18.66
2022-08-20T02:33:24.570Z,18.68
2022-08-20T02:35:56.662Z,18.70
2022-08-20T02:38:25.958Z,18.70
2022-08-20T02:40:54.534Z,18.62
2022-08-20T02:43:23.120Z,18.50
2022-08-20T02:45:53.172Z,18.46
2022-08-20T02:48:23.476Z,18.53
2022-08-20T02:50:55.571Z,18.47
2022-08-20T02:53:24.322Z,18.34
2022-08-20T02:55:53.555Z,18.39
2022-08-20T02:58:23.428Z,18.29
2022-08-20T03:00:53.653Z,17.98
2022-08-20T03:03:22.915Z,18.04
2022-08-20T03:05:53.609Z,17.96
2022-08-20T03:08:23.591Z,18.03
2022-08-20T03:10:53.161Z,17.91
2022-08-20T03:13:23.072Z,18.14
2022-08-20T03:15:58.588Z,18.34
2022-08-20T03:18:31.509Z,18.25
2022-08-20T03:21:00.556Z,18.15
2022-08-20T03:23:30.114Z,18.27
2022-08-20T03:25:59.066Z,18.25
2022-08-20T03:28:28.145Z,18.18
2022-08-20T03:30:59.600Z,18.15
2022-08-20T03:33:29.370Z,18.18
2022-08-20T03:35:58.839Z,17.89
2022-08-20T03:38:32.615Z,17.94
2022-08-20T03:41:03.104Z,18.24
2022-08-20T03:43:32.670Z,18.19
2022-08-20T03:46:03.050Z,18.16
2022-08-20T03:48:31.768Z,18.12
2022-08-20T03:51:01.143Z,18.07
2022-08-20T03:53:31.798Z,18.23
2022-08-20T03:56:04.494Z,18.03
2022-08-20T03:58:35.029Z,18.04
2022-08-20T04:04:12.141Z,17.94
2022-08-20T04:06:41.371Z,17.68
2022-08-20T04:09:11.656Z,17.81
2022-08-20T04:11:41.258Z,17.83
2022-08-20T04:14:11.049Z,17.64
2022-08-20T04:16:40.676Z,17.36
2022-08-20T04:19:10.903Z,17.20
2022-08-20T04:21:39.785Z,17.43
2022-08-20T04:24:08.811Z,17.47
2022-08-20T04:26:51.468Z,17.44
2022-08-20T04:29:20.069Z,17.51
2022-08-20T04:31:48.699Z,17.33
2022-08-20T04:34:19.664Z,17.52
2022-08-20T04:36:48.676Z,17.49
2022-08-20T04:39:17.478Z,17.15
2022-08-20T04:41:46.359Z,17.29
2022-08-20T04:44:14.982Z,17.12
2022-08-20T04:46:43.853Z,17.29
2022-08-20T04:49:12.904Z,17.21
2022-08-20T04:51:42.893Z,17.38
2022-08-20T04:54:14.593Z,17.14
2022-08-20T04:56:43.330Z,17.11
2022-08-20T04:59:11.901Z,17.10
2022-08-20T05:01:40.440Z,17.20
2022-08-20T05:04:09.046Z,17.10
2022-08-20T05:06:37.831Z,17.06
2022-08-20T05:09:07.776Z,17.22
2022-08-20T05:11:36.864Z,17.12
2022-08-20T05:14:08.977Z,17.09
2022-08-20T05:16:41.319Z,16.84
2022-08-20T05:19:12.418Z,16.95
2022-08-20T05:21:41.437Z,16.71
2022-08-20T05:24:12.167Z,16.84
2022-08-20T05:26:41.056Z,16.94
2022-08-20T05:29:09.846Z,16.55
2022-08-20T05:31:39.488Z,16.57
2022-08-20T05:34:11.334Z,16.95
2022-08-20T05:36:41.286Z,16.68
2022-08-20T05:39:12.424Z,16.45
2022-08-20T05:41:41.579Z,16.75
2022-08-20T05:44:13.823Z,16.91
2022-08-20T05:46:44.079Z,16.73
2022-08-20T05:49:15.726Z,16.69
2022-08-20T05:51:44.652Z,16.94
2022-08-20T05:54:15.166Z,16.94
2022-08-20T05:56:44.059Z,16.76
2022-08-20T05:59:14.181Z,16.86
2022-08-20T06:01:44.081Z,17.18
2022-08-20T06:04:28.778Z,17.40
2022-08-20T06:07:02.939Z,17.36
2022-08-20T06:09:33.461Z,17.49
2022-08-20T06:12:03.995Z,17.43
2022-08-20T06:14:34.167Z,17.44
2022-08-20T06:17:08.002Z,17.11
2022-08-20T06:19:38.015Z,17.02
2022-08-20T06:22:17.691Z,17.18
2022-08-20T06:24:51.898Z,17.59
2022-08-20T06:27:20.781Z,18.42
2022-08-20T06:29:50.016Z,19.81
2022-08-20T06:32:19.986Z,21.43
2022-08-20T06:35:02.313Z,22.49
2022-08-20T06:37:33.112Z,23.85
2022-08-20T06:40:07.243Z,24.61
2022-08-20T06:42:36.887Z,24.90
2022-08-20T06:45:06.199Z,25.15
2022-08-20T06:47:35.540Z,25.39
2022-08-20T06:50:04.075Z,25.97
2022-08-20T06:52:52.401Z,25.56
2022-08-20T06:55:23.226Z,25.65
2022-08-20T06:57:59.519Z,25.87
2022-08-20T07:00:29.352Z,26.60
2022-08-20T07:02:58.230Z,27.10
2022-08-20T07:05:26.938Z,27.52
2022-08-20T07:07:55.715Z,29.43
2022-08-20T07:10:27.227Z,29.80
2022-08-20T07:12:56.127Z,31.06
2022-08-20T07:15:27.215Z,32.08
2022-08-20T07:18:01.673Z,32.86
2022-08-20T07:20:31.892Z,33.22
2022-08-20T07:23:00.752Z,33.45
2022-08-20T07:25:33.808Z,33.99
2022-08-20T07:28:03.992Z,34.20
2022-08-20T07:30:56.528Z,34.59
2022-08-20T07:33:28.317Z,35.33
2022-08-20T07:35:57.558Z,35.44
2022-08-20T07:38:27.876Z,36.42
2022-08-20T07:41:00.107Z,36.73
2022-08-20T07:43:29.370Z,36.70
2022-08-20T07:46:01.250Z,37.95
2022-08-20T07:48:32.658Z,37.91
2022-08-20T07:51:22.586Z,37.44
2022-08-20T07:54:00.671Z,37.68
2022-08-20T07:56:30.698Z,37.96
2022-08-20T07:59:01.717Z,36.78
2022-08-20T08:01:32.726Z,38.53
2022-08-20T08:04:01.470Z,38.73
2022-08-20T08:06:32.044Z,39.67
2022-08-20T08:09:05.662Z,40.76
2022-08-20T08:11:38.814Z,38.29
2022-08-20T08:14:10.799Z,37.26
2022-08-20T08:16:40.414Z,37.79
2022-08-20T08:19:12.145Z,36.94
2022-08-20T08:21:41.437Z,37.87
2022-08-20T08:24:13.466Z,37.95
2022-08-20T08:26:45.651Z,39.73
2022-08-20T08:29:14.235Z,40.77
2022-08-20T08:31:42.834Z,41.36
2022-08-20T08:34:11.788Z,42.58
2022-08-20T08:36:40.851Z,42.44
2022-08-20T08:39:09.478Z,42.20
2022-08-20T08:41:47.533Z,43.39
2022-08-20T08:44:23.518Z,44.17
2022-08-20T08:46:56.756Z,45.41
2022-08-20T08:49:37.387Z,46.27
2022-08-20T08:52:11.805Z,43.77
2022-08-20T08:54:44.085Z,45.31
2022-08-20T08:57:12.850Z,45.53
2022-08-20T08:59:58.388Z,46.65
2022-08-20T09:02:32.345Z,47.32
2022-08-20T09:05:04.441Z,46.87
2022-08-20T09:07:34.859Z,47.46
2022-08-20T09:10:04.065Z,48.83
2022-08-20T09:12:33.398Z,48.23
2022-08-20T09:15:03.656Z,48.96
2022-08-20T09:17:32.688Z,50.13
2022-08-20T09:20:01.405Z,49.48
2022-08-20T09:22:31.076Z,48.68
2022-08-20T09:25:00.467Z,48.28
2022-08-20T09:27:29.836Z,48.95
2022-08-20T09:29:58.560Z,48.16
2022-08-20T09:32:28.781Z,48.68
2022-08-20T09:34:59.158Z,48.27
2022-08-20T09:37:35.089Z,48.18
2022-08-20T09:40:08.326Z,48.65
2022-08-20T09:42:41.672Z,44.79
2022-08-20T09:45:11.848Z,45.32
2022-08-20T09:47:56.630Z,46.83
2022-08-20T09:50:26.981Z,46.87
2022-08-20T09:52:56.919Z,47.54
2022-08-20T09:55:29.994Z,48.63
2022-08-20T09:57:59.216Z,50.63
2022-08-20T10:00:28.067Z,50.76
2022-08-20T10:02:58.291Z,50.87
2022-08-20T10:05:27.004Z,51.78
2022-08-20T10:07:55.859Z,52.25
2022-08-20T10:10:24.841Z,52.58
2022-08-20T10:12:55.003Z,52.26
2022-08-20T10:15:23.911Z,54.09
2022-08-20T10:17:53.105Z,53.23
2022-08-20T10:20:23.524Z,51.93
2022-08-20T10:22:52.568Z,51.71
2022-08-20T10:25:21.762Z,51.94
2022-08-20T10:27:50.529Z,51.75
2022-08-20T10:30:19.565Z,51.41
2022-08-20T10:32:50.189Z,52.61
2022-08-20T10:35:19.801Z,52.70
2022-08-20T10:37:50.162Z,50.99
2022-08-20T10:40:19.291Z,50.72
2022-08-20T10:42:48.060Z,52.16
2022-08-20T10:45:17.663Z,52.75
2022-08-20T10:47:46.783Z,52.88
2022-08-20T10:50:20.165Z,52.95
2022-08-20T10:52:50.463Z,50.93
2022-08-20T10:55:20.152Z,52.26
2022-08-20T10:57:51.395Z,52.26
2022-08-20T11:00:21.552Z,50.17
2022-08-20T11:02:52.226Z,50.59
2022-08-20T11:05:21.133Z,51.88
2022-08-20T11:07:59.816Z,52.62
2022-08-20T11:10:31.111Z,51.98
2022-08-20T11:12:59.984Z,50.87
2022-08-20T11:15:29.587Z,51.67
2022-08-20T11:17:58.616Z,48.93
2022-08-20T11:20:28.594Z,49.39
2022-08-20T11:23:06.486Z,47.67
2022-08-20T11:25:35.375Z,45.74
2022-08-20T11:28:04.823Z,48.11
2022-08-20T11:30:36.843Z,48.10
2022-08-20T11:33:09.323Z,50.08
2022-08-20T11:35:48.448Z,50.24
2022-08-20T11:38:19.516Z,50.88
2022-08-20T11:40:48.435Z,48.79
2022-08-20T11:43:18.271Z,50.39
2022-08-20T11:45:49.374Z,49.80
2022-08-20T11:48:18.376Z,51.35
2022-08-20T11:50:47.453Z,50.05
2022-08-20T11:53:22.349Z,50.49
2022-08-20T11:55:51.519Z,49.38
2022-08-20T11:58:20.283Z,49.63
2022-08-20T12:00:49.249Z,47.95
2022-08-20T12:03:22.315Z,46.96
2022-08-20T12:05:51.240Z,44.52
2022-08-20T12:08:27.021Z,43.71
2022-08-20T12:10:58.053Z,41.64
2022-08-20T12:13:30.746Z,40.70
2022-08-20T12:16:16.772Z,39.60
2022-08-20T12:18:46.446Z,39.61
2022-08-20T12:21:15.214Z,39.47
2022-08-20T12:23:45.760Z,39.09
2022-08-20T12:26:16.859Z,38.71
2022-08-20T12:28:45.570Z,38.01
2022-08-20T12:31:14.258Z,37.62
2022-08-20T12:33:43.064Z,37.49
2022-08-20T12:36:12.340Z,37.91
2022-08-20T12:38:40.991Z,37.98
2022-08-20T12:41:11.130Z,37.81
2022-08-20T12:43:44.040Z,37.63
2022-08-20T12:46:12.819Z,37.82
2022-08-20T12:48:42.182Z,37.47
2022-08-20T12:51:11.491Z,37.27
2022-08-20T12:53:40.259Z,37.21
2022-08-20T12:56:10.792Z,37.19
2022-08-20T12:58:41.838Z,37.26
2022-08-20T13:01:10.475Z,36.83
2022-08-20T13:03:43.136Z,37.24
2022-08-20T13:06:13.932Z,36.70
2022-08-20T13:08:43.051Z,36.77
2022-08-20T13:11:13.042Z,36.60
2022-08-20T13:13:43.744Z,36.07
2022-08-20T13:16:12.419Z,36.29
2022-08-20T13:18:41.366Z,36.43
2022-08-20T13:21:10.307Z,36.53
2022-08-20T13:23:38.886Z,36.62
2022-08-20T13:26:07.800Z,36.20
2022-08-20T13:28:37.798Z,36.33
2022-08-20T13:31:06.574Z,36.16
2022-08-20T13:33:35.229Z,36.42
2022-08-20T13:36:03.898Z,35.97
2022-08-20T13:38:32.473Z,35.99
2022-08-20T13:41:01.026Z,36.31
2022-08-20T13:43:29.725Z,36.32
2022-08-20T13:45:59.807Z,35.91
2022-08-20T13:48:28.318Z,35.97
2022-08-20T13:50:57.010Z,35.98
2022-08-20T13:53:26.003Z,35.79
2022-08-20T13:55:54.630Z,35.73
2022-08-20T13:58:24.049Z,35.81
2022-08-20T14:00:52.623Z,35.38
2022-08-20T14:03:25.295Z,35.80
2022-08-20T14:05:54.513Z,35.89
2022-08-20T14:08:25.512Z,35.58
2022-08-20T14:10:54.242Z,35.46
2022-08-20T14:13:25.915Z,35.20
2022-08-20T14:15:55.299Z,35.61
2022-08-20T14:18:25.355Z,35.33
2022-08-20T14:20:53.975Z,35.49
2022-08-20T14:23:22.882Z,35.42
2022-08-20T14:25:51.612Z,35.28
2022-08-20T14:28:22.386Z,34.65
2022-08-20T14:30:53.483Z,34.77
2022-08-20T14:33:25.040Z,34.58
2022-08-20T14:35:54.682Z,34.05
2022-08-20T14:38:23.297Z,34.55
2022-08-20T14:40:51.992Z,34.51
2022-08-20T14:43:20.766Z,34.62
2022-08-20T14:45:49.333Z,34.33
2022-08-20T14:48:17.951Z,34.33
2022-08-20T14:50:47.937Z,34.68
2022-08-20T14:53:16.513Z,34.26
2022-08-20T14:55:45.143Z,34.35
2022-08-20T14:58:15.436Z,34.22
2022-08-20T15:00:44.829Z,34.16
2022-08-20T15:03:14.547Z,34.51
2022-08-20T15:05:43.985Z,34.27
2022-08-20T15:08:14.255Z,34.27
2022-08-20T15:10:43.031Z,34.42
2022-08-20T15:13:11.649Z,34.27
2022-08-20T15:15:40.834Z,34.19
2022-08-20T15:18:09.615Z,34.35
2022-08-20T15:20:38.795Z,34.26
2022-08-20T15:23:07.546Z,34.35
2022-08-20T15:25:38.468Z,34.06
2022-08-20T15:28:08.869Z,34.16
2022-08-20T15:30:38.587Z,34.26
2022-08-20T15:33:07.649Z,33.93
2022-08-20T15:35:36.819Z,34.22
2022-08-20T15:38:05.449Z,34.08
2022-08-20T15:40:35.457Z,34.15
2022-08-20T15:43:06.421Z,34.33
2022-08-20T15:45:35.967Z,34.15
2022-08-20T15:48:11.271Z,34.12
2022-08-20T15:50:55.874Z,33.95
2022-08-20T15:53:30.061Z,34.23
2022-08-20T15:56:05.628Z,34.25
2022-08-20T15:58:40.937Z,33.89
2022-08-20T16:01:24.866Z,34.15
2022-08-20T16:04:46.030Z,34.05
2022-08-20T16:07:21.029Z,33.68
2022-08-20T16:10:04.083Z,33.89
2022-08-20T16:12:35.340Z,34.04
2022-08-20T16:15:10.162Z,33.90
2022-08-20T16:17:45.146Z,33.94
2022-08-20T16:20:32.892Z,33.92
2022-08-20T16:23:04.926Z,33.49
2022-08-20T16:25:46.774Z,33.55
2022-08-20T16:28:24.631Z,33.32
2022-08-20T16:31:03.349Z,33.59
2022-08-20T16:33:38.329Z,33.41
2022-08-20T16:36:12.712Z,33.21
2022-08-20T16:38:48.141Z,33.26
2022-08-20T16:41:23.043Z,33.33
2022-08-20T16:43:54.940Z,33.26
2022-08-20T16:46:29.033Z,33.38
2022-08-20T16:48:59.995Z,33.39
2022-08-20T16:51:36.793Z,33.06
2022-08-20T16:54:06.656Z,33.08
2022-08-20T16:56:37.785Z,32.76
2022-08-20T16:59:09.518Z,32.84
2022-08-20T17:01:40.223Z,32.54
2022-08-20T17:04:09.500Z,32.31
2022-08-20T17:06:44.723Z,32.61
2022-08-20T17:09:22.319Z,32.32
2022-08-20T17:11:53.087Z,32.30
2022-08-20T17:14:21.724Z,32.31
2022-08-20T17:16:53.952Z,32.49
2022-08-20T17:19:29.279Z,32.55
2022-08-20T17:22:08.751Z,32.41
2022-08-20T17:24:37.870Z,32.12
2022-08-20T17:27:13.500Z,31.99
2022-08-20T17:30:20.248Z,31.92
2022-08-20T17:33:01.823Z,31.58
2022-08-20T17:35:34.275Z,31.67
2022-08-20T17:38:04.234Z,31.71
2022-08-20T17:40:46.002Z,31.48
2022-08-20T17:43:27.705Z,31.43
2022-08-20T17:45:57.639Z,31.20
2022-08-20T17:48:33.613Z,31.16
2022-08-20T17:51:10.819Z,31.24
2022-08-20T17:53:44.716Z,31.21
2022-08-20T17:56:21.063Z,30.86
2022-08-20T17:58:54.992Z,30.92
2022-08-20T18:01:26.043Z,30.87
2022-08-20T18:03:56.246Z,31.01
2022-08-20T18:06:32.360Z,30.97
2022-08-20T18:09:06.009Z,30.88
2022-08-20T18:11:40.630Z,30.60
2022-08-20T18:14:36.107Z,30.43
2022-08-20T18:17:15.638Z,30.49
2022-08-20T18:20:10.537Z,30.37
2022-08-20T18:22:48.138Z,30.03
2022-08-20T18:25:29.308Z,29.96
2022-08-20T18:28:04.848Z,29.55
2022-08-20T18:30:34.468Z,28.98
2022-08-20T18:33:09.015Z,28.76
2022-08-20T18:35:45.819Z,28.55
2022-08-20T18:38:28.503Z,28.24
2022-08-20T18:41:08.295Z,28.33
2022-08-20T18:43:36.975Z,28.12
2022-08-20T18:46:21.700Z,28.12
2022-08-20T18:48:57.104Z,27.71
2022-08-20T18:51:33.991Z,27.49
2022-08-20T18:54:02.639Z,27.20
2022-08-20T18:56:38.321Z,27.26
2022-08-20T18:59:13.190Z,27.36
2022-08-20T19:01:44.016Z,27.06
2022-08-20T19:04:27.638Z,27.03
2022-08-20T19:07:02.970Z,26.79
2022-08-20T19:09:56.145Z,26.73
2022-08-20T19:12:42.119Z,26.52
2022-08-20T19:15:16.931Z,26.02
2022-08-20T19:17:56.998Z,25.81
2022-08-20T19:20:29.447Z,25.79
2022-08-20T19:23:06.808Z,25.57
2022-08-20T19:25:38.778Z,25.74
2022-08-20T19:28:16.227Z,25.43
2022-08-20T19:30:45.157Z,25.54
2022-08-20T19:33:14.074Z,25.31
2022-08-20T19:35:42.921Z,25.04
2022-08-20T19:38:17.945Z,25.11
2022-08-20T19:40:46.974Z,25.11
2022-08-20T19:43:21.886Z,25.04
2022-08-20T19:45:53.043Z,24.78
2022-08-20T19:48:40.571Z,24.55
2022-08-20T19:51:16.350Z,24.41
2022-08-20T19:53:49.855Z,24.32
2022-08-20T19:56:21.544Z,24.51
2022-08-20T19:59:00.149Z,24.10
2022-08-20T20:01:29.669Z,24.09
2022-08-20T20:04:01.054Z,24.00
2022-08-20T20:06:33.980Z,24.12
2022-08-20T20:09:06.915Z,23.64
2022-08-20T20:11:38.957Z,23.64
2022-08-20T20:14:10.474Z,23.53
2022-08-20T20:16:41.183Z,23.59
2022-08-20T20:19:28.615Z,23.43
2022-08-20T20:22:16.104Z,23.35
2022-08-20T20:25:00.454Z,23.31
2022-08-20T20:27:30.160Z,23.30
2022-08-20T20:30:03.300Z,23.11
2022-08-20T20:32:34.135Z,23.36
2022-08-20T20:35:06.353Z,23.26
2022-08-20T20:37:48.866Z,23.15
2022-08-20T20:40:26.277Z,22.57
2022-08-20T20:43:06.210Z,22.71
2022-08-20T20:45:37.629Z,22.63
2022-08-20T20:48:18.327Z,22.70
2022-08-20T20:50:50.100Z,22.83
2022-08-20T20:53:51.021Z,22.52
2022-08-20T20:56:33.076Z,22.68
2022-08-20T20:59:06.148Z,22.65
2022-08-20T21:01:49.555Z,22.41
2022-08-20T21:04:20.562Z,22.52
2022-08-20T21:06:49.886Z,22.25
2022-08-20T21:09:20.834Z,22.18
2022-08-20T21:11:51.314Z,22.08
2022-08-20T21:14:20.209Z,22.27
2022-08-20T21:16:49.280Z,21.99
2022-08-20T21:19:18.887Z,21.99
2022-08-20T21:21:47.576Z,22.26
2022-08-20T21:24:16.260Z,22.26
2022-08-20T21:26:45.485Z,21.85
2022-08-20T21:29:18.551Z,22.09
2022-08-20T21:31:47.690Z,22.21
2022-08-20T21:34:17.571Z,22.19
2022-08-20T21:36:46.641Z,22.00
2022-08-20T21:39:15.564Z,22.12
2022-08-20T21:41:45.466Z,21.88
2022-08-20T21:44:21.323Z,22.07
2022-08-20T21:46:50.824Z,22.06
2022-08-20T21:49:20.830Z,22.01
2022-08-20T21:51:50.114Z,21.80
2022-08-20T21:54:20.042Z,21.71
2022-08-20T21:56:53.199Z,21.62
2022-08-20T21:59:25.348Z,21.68
2022-08-20T22:01:54.121Z,21.81
2022-08-20T22:04:23.295Z,21.48
2022-08-20T22:06:52.306Z,21.62
2022-08-20T22:09:21.100Z,21.57
2022-08-20T22:11:53.993Z,21.77
2022-08-20T22:14:25.254Z,21.44
2022-08-20T22:16:53.888Z,21.17
2022-08-20T22:19:22.774Z,21.51
2022-08-20T22:21:54.214Z,21.39
2022-08-20T22:24:24.306Z,21.36
2022-08-20T22:26:52.938Z,21.25
2022-08-20T22:29:21.968Z,20.95
2022-08-20T22:31:52.088Z,21.11
2022-08-20T22:34:21.885Z,21.05
2022-08-20T22:37:00.263Z,20.83
2022-08-20T22:39:29.250Z,20.97
2022-08-20T22:41:59.853Z,20.98
2022-08-20T22:44:28.708Z,20.92
2022-08-20T22:47:04.023Z,20.85
2022-08-20T22:49:35.298Z,20.88
2022-08-20T22:52:04.511Z,20.85
2022-08-20T22:54:34.382Z,20.69
2022-08-20T22:57:03.379Z,20.83
2022-08-20T22:59:32.976Z,20.62
2022-08-20T23:02:20.678Z,20.51
2022-08-20T23:04:49.370Z,20.69
2022-08-20T23:07:21.125Z,20.48
2022-08-20T23:09:49.802Z,20.65
2022-08-20T23:12:18.682Z,20.43
2022-08-20T23:14:47.368Z,20.47
2022-08-20T23:17:19.671Z,20.54
2022-08-20T23:19:49.699Z,20.54
2022-08-20T23:22:19.556Z,20.19
2022-08-20T23:24:48.942Z,20.54
2022-08-20T23:27:19.573Z,20.22
2022-08-20T23:29:48.998Z,20.26
2022-08-20T23:32:19.744Z,20.30
2022-08-20T23:34:48.604Z,20.14
2022-08-20T23:37:19.291Z,20.23
2022-08-20T23:39:49.918Z,20.15
2022-08-20T23:42:18.886Z,20.17
2022-08-20T23:44:47.514Z,19.60
2022-08-20T23:47:23.094Z,19.68
2022-08-20T23:49:52.073Z,19.90
2022-08-20T23:52:20.708Z,19.69
2022-08-20T23:54:49.425Z,19.77
2022-08-20T23:57:21.095Z,19.63
2022-08-20T23:59:52.930Z,19.59
